sensor_id;sensor_type;location;lat;lon;timestamp;P1;durP1;ratioP1;P2;durP2;ratioP2
10295;SDS011;5193;51.032;6.356;2022-12-24T00:00:54;34.37;;;4.77;;
10295;SDS011;5193;51.032;6.356;2022-12-24T00:03:22;25.53;;;4.57;;
10295;SDS011;5193;51.032;6.356;2022-12-24T00:05:48;26.67;;;4.13;;
10295;SDS011;5193;51.032;6.356;2022-12-24T00:08:13;28.40;;;4.20;;
10295;SDS011;5193;51.032;6.356;2022-12-24T00:10:39;26.17;;;3.47;;
10295;SDS011;5193;51.032;6.356;2022-12-24T00:13:04;18.33;;;4.63;;
10295;SDS011;5193;51.032;6.356;2022-12-24T00:15:30;19.93;;;3.40;;
10295;SDS011;5193;51.032;6.356;2022-12-24T00:17:56;8.53;;;1.63;;
10295;SDS011;5193;51.032;6.356;2022-12-24T00:20:21;16.60;;;3.63;;
10295;SDS011;5193;51.032;6.356;2022-12-24T00:22:48;27.27;;;4.17;;
10295;SDS011;5193;51.032;6.356;2022-12-24T00:25:14;29.43;;;4.27;;
10295;SDS011;5193;51.032;6.356;2022-12-24T00:27:40;25.33;;;3.70;;
10295;SDS011;5193;51.032;6.356;2022-12-24T00:30:05;21.63;;;4.10;;
10295;SDS011;5193;51.032;6.356;2022-12-24T00:32:31;23.70;;;4.27;;
10295;SDS011;5193;51.032;6.356;2022-12-24T00:34:57;16.03;;;3.40;;
10295;SDS011;5193;51.032;6.356;2022-12-24T00:37:22;23.73;;;4.83;;
10295;SDS011;5193;51.032;6.356;2022-12-24T00:39:48;14.93;;;2.70;;
10295;SDS011;5193;51.032;6.356;2022-12-24T00:42:14;19.37;;;3.43;;
10295;SDS011;5193;51.032;6.356;2022-12-24T00:44:39;17.53;;;2.07;;
10295;SDS011;5193;51.032;6.356;2022-12-24T00:47:05;20.37;;;3.67;;
10295;SDS011;5193;51.032;6.356;2022-12-24T00:49:30;22.30;;;3.60;;
10295;SDS011;5193;51.032;6.356;2022-12-24T00:51:56;19.93;;;3.60;;
10295;SDS011;5193;51.032;6.356;2022-12-24T00:54:21;21.10;;;3.57;;
10295;SDS011;5193;51.032;6.356;2022-12-24T00:56:47;27.40;;;4.27;;
10295;SDS011;5193;51.032;6.356;2022-12-24T00:59:13;19.23;;;3.43;;
10295;SDS011;5193;51.032;6.356;2022-12-24T01:01:38;12.03;;;2.33;;
10295;SDS011;5193;51.032;6.356;2022-12-24T01:04:04;20.30;;;3.43;;
10295;SDS011;5193;51.032;6.356;2022-12-24T01:06:48;15.93;;;3.30;;
10295;SDS011;5193;51.032;6.356;2022-12-24T01:09:14;21.30;;;3.80;;
10295;SDS011;5193;51.032;6.356;2022-12-24T01:11:40;21.00;;;3.13;;
10295;SDS011;5193;51.032;6.356;2022-12-24T01:14:05;18.80;;;2.83;;
10295;SDS011;5193;51.032;6.356;2022-12-24T01:16:31;18.60;;;3.43;;
10295;SDS011;5193;51.032;6.356;2022-12-24T01:18:56;21.17;;;3.50;;
10295;SDS011;5193;51.032;6.356;2022-12-24T01:21:22;16.00;;;3.30;;
10295;SDS011;5193;51.032;6.356;2022-12-24T01:23:48;25.83;;;3.13;;
10295;SDS011;5193;51.032;6.356;2022-12-24T01:26:13;21.53;;;4.20;;
10295;SDS011;5193;51.032;6.356;2022-12-24T01:28:39;23.67;;;3.73;;
10295;SDS011;5193;51.032;6.356;2022-12-24T01:31:13;19.97;;;3.77;;
10295;SDS011;5193;51.032;6.356;2022-12-24T01:33:40;26.47;;;4.23;;
10295;SDS011;5193;51.032;6.356;2022-12-24T01:36:06;18.83;;;4.03;;
10295;SDS011;5193;51.032;6.356;2022-12-24T01:38:32;22.33;;;3.47;;
10295;SDS011;5193;51.032;6.356;2022-12-24T01:40:58;28.00;;;4.40;;
10295;SDS011;5193;51.032;6.356;2022-12-24T01:43:42;27.00;;;3.67;;
10295;SDS011;5193;51.032;6.356;2022-12-24T01:46:27;22.43;;;3.60;;
10295;SDS011;5193;51.032;6.356;2022-12-24T01:48:56;24.57;;;3.77;;
10295;SDS011;5193;51.032;6.356;2022-12-24T01:51:29;19.43;;;4.07;;
10295;SDS011;5193;51.032;6.356;2022-12-24T01:54:01;15.37;;;3.13;;
10295;SDS011;5193;51.032;6.356;2022-12-24T01:56:31;28.57;;;4.93;;
10295;SDS011;5193;51.032;6.356;2022-12-24T01:59:01;23.97;;;4.03;;
10295;SDS011;5193;51.032;6.356;2022-12-24T02:01:30;23.33;;;3.73;;
10295;SDS011;5193;51.032;6.356;2022-12-24T02:03:56;13.63;;;2.67;;
10295;SDS011;5193;51.032;6.356;2022-12-24T02:06:22;25.60;;;3.50;;
10295;SDS011;5193;51.032;6.356;2022-12-24T02:08:48;20.47;;;3.47;;
10295;SDS011;5193;51.032;6.356;2022-12-24T02:11:18;14.47;;;2.50;;
10295;SDS011;5193;51.032;6.356;2022-12-24T02:13:47;26.57;;;3.90;;
10295;SDS011;5193;51.032;6.356;2022-12-24T02:19:16;20.77;;;3.83;;
10295;SDS011;5193;51.032;6.356;2022-12-24T02:31:17;22.37;;;4.27;;
10295;SDS011;5193;51.032;6.356;2022-12-24T02:36:18;25.47;;;4.67;;
10295;SDS011;5193;51.032;6.356;2022-12-24T02:38:57;22.33;;;3.30;;
10295;SDS011;5193;51.032;6.356;2022-12-24T02:41:30;21.27;;;3.63;;
10295;SDS011;5193;51.032;6.356;2022-12-24T02:44:23;15.30;;;2.73;;
10295;SDS011;5193;51.032;6.356;2022-12-24T02:46:52;19.73;;;3.80;;
10295;SDS011;5193;51.032;6.356;2022-12-24T02:49:18;19.53;;;3.67;;
10295;SDS011;5193;51.032;6.356;2022-12-24T02:51:44;15.43;;;3.40;;
10295;SDS011;5193;51.032;6.356;2022-12-24T02:54:10;16.43;;;3.20;;
10295;SDS011;5193;51.032;6.356;2022-12-24T02:56:44;16.07;;;3.40;;
10295;SDS011;5193;51.032;6.356;2022-12-24T03:03:31;17.27;;;2.90;;
10295;SDS011;5193;51.032;6.356;2022-12-24T03:05:35;12.47;;;2.73;;
10295;SDS011;5193;51.032;6.356;2022-12-24T03:08:20;18.23;;;3.60;;
10295;SDS011;5193;51.032;6.356;2022-12-24T03:11:09;14.27;;;3.27;;
10295;SDS011;5193;51.032;6.356;2022-12-24T03:13:37;14.00;;;3.20;;
10295;SDS011;5193;51.032;6.356;2022-12-24T03:16:04;19.73;;;2.60;;
10295;SDS011;5193;51.032;6.356;2022-12-24T03:18:32;8.00;;;2.37;;
10295;SDS011;5193;51.032;6.356;2022-12-24T03:21:12;11.37;;;2.30;;
10295;SDS011;5193;51.032;6.356;2022-12-24T03:23:48;15.30;;;3.00;;
10295;SDS011;5193;51.032;6.356;2022-12-24T03:26:15;16.80;;;3.03;;
10295;SDS011;5193;51.032;6.356;2022-12-24T03:28:42;7.27;;;2.20;;
10295;SDS011;5193;51.032;6.356;2022-12-24T03:31:09;11.57;;;2.77;;
10295;SDS011;5193;51.032;6.356;2022-12-24T03:33:36;9.80;;;2.07;;
10295;SDS011;5193;51.032;6.356;2022-12-24T03:36:02;10.63;;;2.20;;
10295;SDS011;5193;51.032;6.356;2022-12-24T03:38:28;10.17;;;2.43;;
10295;SDS011;5193;51.032;6.356;2022-12-24T03:40:54;12.73;;;2.17;;
10295;SDS011;5193;51.032;6.356;2022-12-24T03:43:19;9.07;;;2.33;;
10295;SDS011;5193;51.032;6.356;2022-12-24T03:45:45;9.47;;;2.17;;
10295;SDS011;5193;51.032;6.356;2022-12-24T03:48:10;15.13;;;2.60;;
10295;SDS011;5193;51.032;6.356;2022-12-24T03:50:36;6.43;;;1.70;;
10295;SDS011;5193;51.032;6.356;2022-12-24T03:53:01;9.03;;;1.87;;
10295;SDS011;5193;51.032;6.356;2022-12-24T03:55:27;13.63;;;2.13;;
10295;SDS011;5193;51.032;6.356;2022-12-24T03:57:53;9.13;;;1.90;;
10295;SDS011;5193;51.032;6.356;2022-12-24T04:00:18;13.83;;;1.73;;
10295;SDS011;5193;51.032;6.356;2022-12-24T04:02:44;8.73;;;1.73;;
10295;SDS011;5193;51.032;6.356;2022-12-24T04:05:12;4.57;;;1.40;;
10295;SDS011;5193;51.032;6.356;2022-12-24T04:07:39;7.90;;;1.80;;
10295;SDS011;5193;51.032;6.356;2022-12-24T04:10:05;9.40;;;2.00;;
10295;SDS011;5193;51.032;6.356;2022-12-24T04:12:31;7.93;;;1.63;;
10295;SDS011;5193;51.032;6.356;2022-12-24T04:14:56;5.07;;;1.40;;
10295;SDS011;5193;51.032;6.356;2022-12-24T04:17:22;7.67;;;2.07;;
10295;SDS011;5193;51.032;6.356;2022-12-24T04:19:47;10.57;;;2.27;;
10295;SDS011;5193;51.032;6.356;2022-12-24T04:22:13;8.33;;;2.13;;
10295;SDS011;5193;51.032;6.356;2022-12-24T04:24:38;10.50;;;2.23;;
10295;SDS011;5193;51.032;6.356;2022-12-24T04:27:04;10.80;;;1.90;;
10295;SDS011;5193;51.032;6.356;2022-12-24T04:29:29;10.70;;;2.60;;
10295;SDS011;5193;51.032;6.356;2022-12-24T04:31:55;11.63;;;2.47;;
10295;SDS011;5193;51.032;6.356;2022-12-24T04:34:20;16.20;;;2.80;;
10295;SDS011;5193;51.032;6.356;2022-12-24T04:36:46;10.10;;;2.17;;
10295;SDS011;5193;51.032;6.356;2022-12-24T04:39:12;9.63;;;2.70;;
10295;SDS011;5193;51.032;6.356;2022-12-24T04:41:37;15.17;;;2.60;;
10295;SDS011;5193;51.032;6.356;2022-12-24T04:44:03;11.50;;;1.83;;
10295;SDS011;5193;51.032;6.356;2022-12-24T04:46:28;13.13;;;2.43;;
10295;SDS011;5193;51.032;6.356;2022-12-24T04:48:54;12.73;;;2.27;;
10295;SDS011;5193;51.032;6.356;2022-12-24T04:51:21;16.93;;;3.27;;
10295;SDS011;5193;51.032;6.356;2022-12-24T04:53:47;12.37;;;2.57;;
10295;SDS011;5193;51.032;6.356;2022-12-24T04:56:14;7.77;;;2.17;;
10295;SDS011;5193;51.032;6.356;2022-12-24T04:58:42;15.07;;;2.47;;
10295;SDS011;5193;51.032;6.356;2022-12-24T05:01:13;13.57;;;3.20;;
10295;SDS011;5193;51.032;6.356;2022-12-24T05:03:42;8.70;;;2.10;;
10295;SDS011;5193;51.032;6.356;2022-12-24T05:06:08;13.13;;;3.53;;
10295;SDS011;5193;51.032;6.356;2022-12-24T05:08:37;14.53;;;3.27;;
10295;SDS011;5193;51.032;6.356;2022-12-24T05:11:04;10.17;;;3.13;;
10295;SDS011;5193;51.032;6.356;2022-12-24T05:13:30;12.00;;;2.70;;
10295;SDS011;5193;51.032;6.356;2022-12-24T05:15:56;20.77;;;3.27;;
10295;SDS011;5193;51.032;6.356;2022-12-24T05:18:22;21.27;;;3.87;;
10295;SDS011;5193;51.032;6.356;2022-12-24T05:20:48;16.13;;;3.20;;
10295;SDS011;5193;51.032;6.356;2022-12-24T05:23:23;13.63;;;3.07;;
10295;SDS011;5193;51.032;6.356;2022-12-24T05:26:13;13.13;;;3.30;;
10295;SDS011;5193;51.032;6.356;2022-12-24T05:28:47;18.40;;;3.33;;
10295;SDS011;5193;51.032;6.356;2022-12-24T05:31:14;19.43;;;4.27;;
10295;SDS011;5193;51.032;6.356;2022-12-24T05:33:39;20.80;;;3.67;;
10295;SDS011;5193;51.032;6.356;2022-12-24T05:36:05;21.43;;;3.90;;
10295;SDS011;5193;51.032;6.356;2022-12-24T05:38:31;15.93;;;3.37;;
10295;SDS011;5193;51.032;6.356;2022-12-24T05:40:56;20.50;;;4.20;;
10295;SDS011;5193;51.032;6.356;2022-12-24T05:43:22;21.23;;;3.67;;
10295;SDS011;5193;51.032;6.356;2022-12-24T05:45:47;21.00;;;4.40;;
10295;SDS011;5193;51.032;6.356;2022-12-24T05:48:13;21.90;;;4.07;;
10295;SDS011;5193;51.032;6.356;2022-12-24T05:50:39;17.57;;;3.93;;
10295;SDS011;5193;51.032;6.356;2022-12-24T05:53:05;17.47;;;3.17;;
10295;SDS011;5193;51.032;6.356;2022-12-24T05:55:31;21.93;;;3.67;;
10295;SDS011;5193;51.032;6.356;2022-12-24T05:57:56;18.83;;;3.93;;
10295;SDS011;5193;51.032;6.356;2022-12-24T06:00:22;18.40;;;3.27;;
10295;SDS011;5193;51.032;6.356;2022-12-24T06:02:47;16.57;;;4.13;;
10295;SDS011;5193;51.032;6.356;2022-12-24T06:05:13;24.07;;;4.13;;
10295;SDS011;5193;51.032;6.356;2022-12-24T06:07:39;24.63;;;3.87;;
10295;SDS011;5193;51.032;6.356;2022-12-24T06:10:05;23.03;;;4.07;;
10295;SDS011;5193;51.032;6.356;2022-12-24T06:12:31;29.73;;;3.90;;
10295;SDS011;5193;51.032;6.356;2022-12-24T06:14:57;19.77;;;3.87;;
10295;SDS011;5193;51.032;6.356;2022-12-24T06:17:22;23.27;;;3.93;;
10295;SDS011;5193;51.032;6.356;2022-12-24T06:19:48;27.47;;;3.93;;
10295;SDS011;5193;51.032;6.356;2022-12-24T06:22:13;22.27;;;4.30;;
10295;SDS011;5193;51.032;6.356;2022-12-24T06:24:39;13.50;;;3.17;;
10295;SDS011;5193;51.032;6.356;2022-12-24T06:27:04;26.47;;;4.23;;
10295;SDS011;5193;51.032;6.356;2022-12-24T06:29:30;21.80;;;4.07;;
10295;SDS011;5193;51.032;6.356;2022-12-24T06:31:56;28.07;;;4.03;;
10295;SDS011;5193;51.032;6.356;2022-12-24T06:34:21;17.67;;;3.27;;
10295;SDS011;5193;51.032;6.356;2022-12-24T06:36:47;19.30;;;4.43;;
10295;SDS011;5193;51.032;6.356;2022-12-24T06:39:13;12.50;;;3.63;;
10295;SDS011;5193;51.032;6.356;2022-12-24T06:41:38;17.10;;;3.33;;
10295;SDS011;5193;51.032;6.356;2022-12-24T06:44:04;21.70;;;3.93;;
10295;SDS011;5193;51.032;6.356;2022-12-24T06:46:29;22.37;;;3.40;;
10295;SDS011;5193;51.032;6.356;2022-12-24T06:48:55;18.50;;;4.20;;
10295;SDS011;5193;51.032;6.356;2022-12-24T06:51:21;20.87;;;4.30;;
10295;SDS011;5193;51.032;6.356;2022-12-24T06:53:47;22.67;;;4.40;;
10295;SDS011;5193;51.032;6.356;2022-12-24T06:56:14;27.33;;;4.57;;
10295;SDS011;5193;51.032;6.356;2022-12-24T06:58:40;20.47;;;3.87;;
10295;SDS011;5193;51.032;6.356;2022-12-24T07:01:08;16.13;;;3.80;;
10295;SDS011;5193;51.032;6.356;2022-12-24T07:03:35;21.53;;;3.83;;
10295;SDS011;5193;51.032;6.356;2022-12-24T07:06:01;19.57;;;4.33;;
10295;SDS011;5193;51.032;6.356;2022-12-24T07:08:26;12.00;;;2.93;;
10295;SDS011;5193;51.032;6.356;2022-12-24T07:10:52;22.33;;;4.60;;
10295;SDS011;5193;51.032;6.356;2022-12-24T07:13:18;25.23;;;4.40;;
10295;SDS011;5193;51.032;6.356;2022-12-24T07:15:44;24.37;;;3.70;;
10295;SDS011;5193;51.032;6.356;2022-12-24T07:18:10;26.70;;;4.57;;
10295;SDS011;5193;51.032;6.356;2022-12-24T07:20:37;27.20;;;4.47;;
10295;SDS011;5193;51.032;6.356;2022-12-24T07:23:03;15.10;;;3.00;;
10295;SDS011;5193;51.032;6.356;2022-12-24T07:25:28;28.37;;;5.17;;
10295;SDS011;5193;51.032;6.356;2022-12-24T07:27:54;28.57;;;4.63;;
10295;SDS011;5193;51.032;6.356;2022-12-24T07:30:19;32.47;;;3.93;;
10295;SDS011;5193;51.032;6.356;2022-12-24T07:32:45;26.27;;;3.93;;
10295;SDS011;5193;51.032;6.356;2022-12-24T07:35:11;25.47;;;4.53;;
10295;SDS011;5193;51.032;6.356;2022-12-24T07:37:36;19.53;;;3.50;;
10295;SDS011;5193;51.032;6.356;2022-12-24T07:40:02;19.70;;;4.07;;
10295;SDS011;5193;51.032;6.356;2022-12-24T07:42:31;17.60;;;3.77;;
10295;SDS011;5193;51.032;6.356;2022-12-24T07:44:57;24.77;;;4.67;;
10295;SDS011;5193;51.032;6.356;2022-12-24T07:47:23;25.37;;;4.97;;
10295;SDS011;5193;51.032;6.356;2022-12-24T07:49:48;26.90;;;3.63;;
10295;SDS011;5193;51.032;6.356;2022-12-24T07:52:14;26.07;;;4.70;;
10295;SDS011;5193;51.032;6.356;2022-12-24T07:54:40;23.53;;;3.40;;
10295;SDS011;5193;51.032;6.356;2022-12-24T07:57:05;25.17;;;4.50;;
10295;SDS011;5193;51.032;6.356;2022-12-24T07:59:31;25.33;;;4.83;;
10295;SDS011;5193;51.032;6.356;2022-12-24T08:01:57;18.90;;;4.30;;
10295;SDS011;5193;51.032;6.356;2022-12-24T08:04:22;28.17;;;4.40;;
10295;SDS011;5193;51.032;6.356;2022-12-24T08:06:48;31.33;;;4.07;;
10295;SDS011;5193;51.032;6.356;2022-12-24T08:09:13;29.93;;;5.10;;
10295;SDS011;5193;51.032;6.356;2022-12-24T08:11:39;29.70;;;4.40;;
10295;SDS011;5193;51.032;6.356;2022-12-24T08:14:05;28.77;;;4.13;;
10295;SDS011;5193;51.032;6.356;2022-12-24T08:16:30;26.63;;;4.43;;
10295;SDS011;5193;51.032;6.356;2022-12-24T08:18:56;27.00;;;4.00;;
10295;SDS011;5193;51.032;6.356;2022-12-24T08:21:21;31.80;;;4.40;;
10295;SDS011;5193;51.032;6.356;2022-12-24T08:23:47;23.73;;;4.20;;
10295;SDS011;5193;51.032;6.356;2022-12-24T08:26:13;19.63;;;3.50;;
10295;SDS011;5193;51.032;6.356;2022-12-24T08:28:38;21.07;;;4.43;;
10295;SDS011;5193;51.032;6.356;2022-12-24T08:31:04;27.70;;;4.90;;
10295;SDS011;5193;51.032;6.356;2022-12-24T08:33:30;28.00;;;4.97;;
10295;SDS011;5193;51.032;6.356;2022-12-24T08:35:56;24.03;;;4.20;;
10295;SDS011;5193;51.032;6.356;2022-12-24T08:38:22;31.77;;;5.63;;
10295;SDS011;5193;51.032;6.356;2022-12-24T08:40:48;29.03;;;4.70;;
10295;SDS011;5193;51.032;6.356;2022-12-24T08:43:16;21.23;;;4.30;;
10295;SDS011;5193;51.032;6.356;2022-12-24T08:45:42;31.53;;;4.70;;
10295;SDS011;5193;51.032;6.356;2022-12-24T08:48:08;20.67;;;4.50;;
10295;SDS011;5193;51.032;6.356;2022-12-24T08:50:36;26.87;;;4.50;;
10295;SDS011;5193;51.032;6.356;2022-12-24T08:53:03;25.00;;;4.60;;
10295;SDS011;5193;51.032;6.356;2022-12-24T08:55:29;17.20;;;3.57;;
10295;SDS011;5193;51.032;6.356;2022-12-24T08:57:54;25.80;;;4.47;;
10295;SDS011;5193;51.032;6.356;2022-12-24T09:00:20;24.20;;;3.43;;
10295;SDS011;5193;51.032;6.356;2022-12-24T09:02:46;25.73;;;4.53;;
10295;SDS011;5193;51.032;6.356;2022-12-24T09:05:11;29.60;;;4.37;;
10295;SDS011;5193;51.032;6.356;2022-12-24T09:07:37;41.50;;;6.33;;
10295;SDS011;5193;51.032;6.356;2022-12-24T09:10:03;29.70;;;4.47;;
10295;SDS011;5193;51.032;6.356;2022-12-24T09:12:29;23.40;;;4.70;;
10295;SDS011;5193;51.032;6.356;2022-12-24T09:14:54;24.20;;;5.10;;
10295;SDS011;5193;51.032;6.356;2022-12-24T09:17:20;28.77;;;4.73;;
10295;SDS011;5193;51.032;6.356;2022-12-24T09:19:46;33.50;;;5.20;;
10295;SDS011;5193;51.032;6.356;2022-12-24T09:22:12;25.77;;;4.63;;
10295;SDS011;5193;51.032;6.356;2022-12-24T09:24:38;15.17;;;4.10;;
10295;SDS011;5193;51.032;6.356;2022-12-24T09:27:04;35.53;;;5.27;;
10295;SDS011;5193;51.032;6.356;2022-12-24T09:29:30;28.93;;;4.80;;
10295;SDS011;5193;51.032;6.356;2022-12-24T09:31:56;24.20;;;4.00;;
10295;SDS011;5193;51.032;6.356;2022-12-24T09:34:22;20.60;;;3.70;;
10295;SDS011;5193;51.032;6.356;2022-12-24T09:36:48;23.43;;;4.90;;
10295;SDS011;5193;51.032;6.356;2022-12-24T09:39:15;27.40;;;5.23;;
10295;SDS011;5193;51.032;6.356;2022-12-24T09:44:10;34.17;;;5.33;;
10295;SDS011;5193;51.032;6.356;2022-12-24T09:46:55;23.17;;;4.50;;
10295;SDS011;5193;51.032;6.356;2022-12-24T09:49:25;28.23;;;5.27;;
10295;SDS011;5193;51.032;6.356;2022-12-24T09:52:03;21.40;;;5.03;;
10295;SDS011;5193;51.032;6.356;2022-12-24T09:54:34;21.80;;;4.00;;
10295;SDS011;5193;51.032;6.356;2022-12-24T09:57:05;34.20;;;4.60;;
10295;SDS011;5193;51.032;6.356;2022-12-24T09:59:44;16.90;;;4.50;;
10295;SDS011;5193;51.032;6.356;2022-12-24T10:02:12;22.37;;;4.33;;
10295;SDS011;5193;51.032;6.356;2022-12-24T10:04:42;34.40;;;5.03;;
10295;SDS011;5193;51.032;6.356;2022-12-24T10:15:34;22.20;;;4.90;;
10295;SDS011;5193;51.032;6.356;2022-12-24T10:21:27;24.50;;;4.67;;
10295;SDS011;5193;51.032;6.356;2022-12-24T10:24:18;25.33;;;5.40;;
10295;SDS011;5193;51.032;6.356;2022-12-24T10:27:14;27.83;;;4.50;;
10295;SDS011;5193;51.032;6.356;2022-12-24T10:29:44;31.37;;;5.10;;
10295;SDS011;5193;51.032;6.356;2022-12-24T10:34:56;23.73;;;3.93;;
10295;SDS011;5193;51.032;6.356;2022-12-24T10:37:44;27.53;;;5.00;;
10295;SDS011;5193;51.032;6.356;2022-12-24T10:40:13;29.40;;;6.13;;
10295;SDS011;5193;51.032;6.356;2022-12-24T10:42:55;30.60;;;4.90;;
10295;SDS011;5193;51.032;6.356;2022-12-24T10:45:21;22.70;;;4.30;;
10295;SDS011;5193;51.032;6.356;2022-12-24T10:47:51;20.37;;;5.17;;
10295;SDS011;5193;51.032;6.356;2022-12-24T10:52:52;27.90;;;4.53;;
10295;SDS011;5193;51.032;6.356;2022-12-24T10:55:23;22.97;;;4.90;;
10295;SDS011;5193;51.032;6.356;2022-12-24T10:57:56;22.07;;;4.40;;
10295;SDS011;5193;51.032;6.356;2022-12-24T11:00:28;30.60;;;6.70;;
10295;SDS011;5193;51.032;6.356;2022-12-24T11:03:15;34.30;;;5.03;;
10295;SDS011;5193;51.032;6.356;2022-12-24T11:05:50;35.13;;;5.13;;
10295;SDS011;5193;51.032;6.356;2022-12-24T11:08:45;29.13;;;4.93;;
10295;SDS011;5193;51.032;6.356;2022-12-24T11:11:12;32.53;;;5.73;;
10295;SDS011;5193;51.032;6.356;2022-12-24T11:13:51;13.77;;;4.17;;
10295;SDS011;5193;51.032;6.356;2022-12-24T11:18:46;27.93;;;4.57;;
10295;SDS011;5193;51.032;6.356;2022-12-24T11:21:18;35.80;;;5.17;;
10295;SDS011;5193;51.032;6.356;2022-12-24T11:23:55;24.07;;;4.93;;
10295;SDS011;5193;51.032;6.356;2022-12-24T11:26:24;25.57;;;5.00;;
10295;SDS011;5193;51.032;6.356;2022-12-24T11:29:03;30.47;;;5.33;;
10295;SDS011;5193;51.032;6.356;2022-12-24T11:31:46;26.33;;;5.43;;
10295;SDS011;5193;51.032;6.356;2022-12-24T11:39:40;31.97;;;5.37;;
10295;SDS011;5193;51.032;6.356;2022-12-24T11:45:06;30.20;;;5.30;;
10295;SDS011;5193;51.032;6.356;2022-12-24T11:47:42;29.00;;;5.17;;
10295;SDS011;5193;51.032;6.356;2022-12-24T11:50:27;30.97;;;5.80;;
10295;SDS011;5193;51.032;6.356;2022-12-24T11:55:32;30.67;;;4.43;;
10295;SDS011;5193;51.032;6.356;2022-12-24T12:00:43;28.33;;;4.97;;
10295;SDS011;5193;51.032;6.356;2022-12-24T12:03:34;25.23;;;4.47;;
10295;SDS011;5193;51.032;6.356;2022-12-24T12:06:02;22.77;;;5.20;;
10295;SDS011;5193;51.032;6.356;2022-12-24T12:08:33;23.93;;;4.33;;
10295;SDS011;5193;51.032;6.356;2022-12-24T12:11:01;21.77;;;5.30;;
10295;SDS011;5193;51.032;6.356;2022-12-24T12:13:34;26.97;;;5.20;;
10295;SDS011;5193;51.032;6.356;2022-12-24T12:16:05;25.27;;;4.97;;
10295;SDS011;5193;51.032;6.356;2022-12-24T12:18:41;30.13;;;5.20;;
10295;SDS011;5193;51.032;6.356;2022-12-24T12:21:18;30.30;;;4.30;;
10295;SDS011;5193;51.032;6.356;2022-12-24T12:23:51;26.17;;;4.60;;
10295;SDS011;5193;51.032;6.356;2022-12-24T12:26:26;23.60;;;4.70;;
10295;SDS011;5193;51.032;6.356;2022-12-24T12:28:55;21.03;;;4.80;;
10295;SDS011;5193;51.032;6.356;2022-12-24T12:31:41;28.47;;;4.93;;
10295;SDS011;5193;51.032;6.356;2022-12-24T12:34:33;28.37;;;5.50;;
10295;SDS011;5193;51.032;6.356;2022-12-24T12:37:04;25.77;;;4.20;;
10295;SDS011;5193;51.032;6.356;2022-12-24T12:39:54;21.97;;;5.10;;
10295;SDS011;5193;51.032;6.356;2022-12-24T12:42:34;21.73;;;4.80;;
10295;SDS011;5193;51.032;6.356;2022-12-24T12:51:08;20.97;;;4.13;;
10295;SDS011;5193;51.032;6.356;2022-12-24T12:56:32;23.50;;;4.43;;
10295;SDS011;5193;51.032;6.356;2022-12-24T12:59:01;22.00;;;4.30;;
10295;SDS011;5193;51.032;6.356;2022-12-24T13:10:18;20.87;;;3.97;;
10295;SDS011;5193;51.032;6.356;2022-12-24T13:21:24;18.93;;;4.37;;
10295;SDS011;5193;51.032;6.356;2022-12-24T13:47:57;18.17;;;3.67;;
10295;SDS011;5193;51.032;6.356;2022-12-24T13:58:29;20.77;;;4.33;;
10295;SDS011;5193;51.032;6.356;2022-12-24T14:03:30;18.63;;;3.00;;
10295;SDS011;5193;51.032;6.356;2022-12-24T14:06:05;20.80;;;3.87;;
10295;SDS011;5193;51.032;6.356;2022-12-24T14:08:41;25.13;;;4.73;;
10295;SDS011;5193;51.032;6.356;2022-12-24T14:16:02;21.03;;;4.87;;
10295;SDS011;5193;51.032;6.356;2022-12-24T14:18:30;28.97;;;4.53;;
10295;SDS011;5193;51.032;6.356;2022-12-24T14:20:59;21.07;;;4.13;;
10295;SDS011;5193;51.032;6.356;2022-12-24T14:26:02;24.33;;;4.30;;
10295;SDS011;5193;51.032;6.356;2022-12-24T14:28:33;21.53;;;4.63;;
10295;SDS011;5193;51.032;6.356;2022-12-24T14:31:04;23.93;;;4.27;;
10295;SDS011;5193;51.032;6.356;2022-12-24T14:33:37;24.43;;;4.70;;
10295;SDS011;5193;51.032;6.356;2022-12-24T14:36:03;18.17;;;4.30;;
10295;SDS011;5193;51.032;6.356;2022-12-24T14:38:28;33.00;;;4.77;;
10295;SDS011;5193;51.032;6.356;2022-12-24T14:40:59;30.97;;;6.03;;
10295;SDS011;5193;51.032;6.356;2022-12-24T14:46:47;26.23;;;4.30;;
10295;SDS011;5193;51.032;6.356;2022-12-24T15:00:45;15.17;;;4.00;;
10295;SDS011;5193;51.032;6.356;2022-12-24T15:03:12;22.73;;;4.57;;
10295;SDS011;5193;51.032;6.356;2022-12-24T15:05:40;16.67;;;3.57;;
10295;SDS011;5193;51.032;6.356;2022-12-24T15:08:13;24.40;;;5.40;;
10295;SDS011;5193;51.032;6.356;2022-12-24T15:24:28;31.10;;;5.20;;
10295;SDS011;5193;51.032;6.356;2022-12-24T15:26:56;18.27;;;4.13;;
10295;SDS011;5193;51.032;6.356;2022-12-24T15:29:24;23.50;;;4.40;;
10295;SDS011;5193;51.032;6.356;2022-12-24T15:31:56;23.73;;;4.93;;
10295;SDS011;5193;51.032;6.356;2022-12-24T15:34:27;25.53;;;4.63;;
10295;SDS011;5193;51.032;6.356;2022-12-24T15:42:41;23.47;;;4.13;;
10295;SDS011;5193;51.032;6.356;2022-12-24T15:45:20;21.77;;;4.07;;
10295;SDS011;5193;51.032;6.356;2022-12-24T15:47:53;19.53;;;4.40;;
10295;SDS011;5193;51.032;6.356;2022-12-24T15:50:31;26.43;;;6.13;;
10295;SDS011;5193;51.032;6.356;2022-12-24T15:53:05;24.40;;;4.43;;
10295;SDS011;5193;51.032;6.356;2022-12-24T15:58:14;24.37;;;5.30;;
10295;SDS011;5193;51.032;6.356;2022-12-24T16:00:41;22.60;;;4.70;;
10295;SDS011;5193;51.032;6.356;2022-12-24T16:03:15;18.63;;;3.83;;
10295;SDS011;5193;51.032;6.356;2022-12-24T16:05:42;17.00;;;3.73;;
10295;SDS011;5193;51.032;6.356;2022-12-24T16:10:44;16.63;;;4.17;;
10295;SDS011;5193;51.032;6.356;2022-12-24T16:15:42;14.37;;;3.73;;
10295;SDS011;5193;51.032;6.356;2022-12-24T16:18:17;17.07;;;3.60;;
10295;SDS011;5193;51.032;6.356;2022-12-24T16:20:48;15.00;;;3.50;;
10295;SDS011;5193;51.032;6.356;2022-12-24T16:23:16;13.37;;;3.60;;
10295;SDS011;5193;51.032;6.356;2022-12-24T16:25:43;20.40;;;4.63;;
10295;SDS011;5193;51.032;6.356;2022-12-24T16:28:12;13.83;;;4.20;;
10295;SDS011;5193;51.032;6.356;2022-12-24T16:30:39;15.87;;;3.97;;
10295;SDS011;5193;51.032;6.356;2022-12-24T16:33:04;12.83;;;3.80;;
10295;SDS011;5193;51.032;6.356;2022-12-24T16:35:36;18.40;;;3.63;;
10295;SDS011;5193;51.032;6.356;2022-12-24T16:38:02;12.83;;;3.40;;
10295;SDS011;5193;51.032;6.356;2022-12-24T16:40:28;13.00;;;3.53;;
10295;SDS011;5193;51.032;6.356;2022-12-24T16:42:57;13.57;;;4.13;;
10295;SDS011;5193;51.032;6.356;2022-12-24T16:45:41;11.57;;;3.97;;
10295;SDS011;5193;51.032;6.356;2022-12-24T16:48:10;13.30;;;3.83;;
10295;SDS011;5193;51.032;6.356;2022-12-24T16:50:43;22.37;;;4.13;;
10295;SDS011;5193;51.032;6.356;2022-12-24T16:53:11;18.23;;;4.07;;
10295;SDS011;5193;51.032;6.356;2022-12-24T16:55:40;13.17;;;4.20;;
10295;SDS011;5193;51.032;6.356;2022-12-24T16:58:08;17.63;;;4.77;;
10295;SDS011;5193;51.032;6.356;2022-12-24T17:00:35;17.73;;;4.57;;
10295;SDS011;5193;51.032;6.356;2022-12-24T17:03:01;14.87;;;4.40;;
10295;SDS011;5193;51.032;6.356;2022-12-24T17:05:26;17.43;;;4.63;;
10295;SDS011;5193;51.032;6.356;2022-12-24T17:07:52;18.47;;;5.10;;
10295;SDS011;5193;51.032;6.356;2022-12-24T17:10:18;18.53;;;4.97;;
10295;SDS011;5193;51.032;6.356;2022-12-24T17:12:43;16.17;;;4.50;;
10295;SDS011;5193;51.032;6.356;2022-12-24T17:15:09;17.63;;;4.93;;
10295;SDS011;5193;51.032;6.356;2022-12-24T17:17:35;19.67;;;5.33;;
10295;SDS011;5193;51.032;6.356;2022-12-24T17:20:00;16.47;;;4.80;;
10295;SDS011;5193;51.032;6.356;2022-12-24T17:22:28;16.63;;;5.23;;
10295;SDS011;5193;51.032;6.356;2022-12-24T17:24:54;15.23;;;5.17;;
10295;SDS011;5193;51.032;6.356;2022-12-24T17:27:20;23.13;;;5.10;;
10295;SDS011;5193;51.032;6.356;2022-12-24T17:29:46;14.23;;;4.60;;
10295;SDS011;5193;51.032;6.356;2022-12-24T17:32:12;15.23;;;4.43;;
10295;SDS011;5193;51.032;6.356;2022-12-24T17:34:38;16.53;;;4.97;;
10295;SDS011;5193;51.032;6.356;2022-12-24T17:37:04;22.73;;;6.10;;
10295;SDS011;5193;51.032;6.356;2022-12-24T17:39:29;15.13;;;4.77;;
10295;SDS011;5193;51.032;6.356;2022-12-24T17:41:55;21.60;;;5.87;;